Time;durP1;ratioP1;P1;durP2;ratioP2;P2;SDS_P1;SDS_P2;PMS_P1;PMS_P2;Temp;Humidity;BMP_temperature;BMP_pressure;BME280_temperature;BME280_humidity;BME280_pressure;Samples;Min_cycle;Max_cycle;Signal;HPM_P1;HPM_P2
2021/10/18 00:00:56;;;;;;;10.45;7.68;;;22.90;37.10;;;;;;4778687;29;20055;-53
2021/10/18 00:03:24;;;;;;;9.18;7.30;;;22.90;37.10;;;;;;4781199;29;20510;-54
2021/10/18 00:05:51;;;;;;;8.75;7.85;;;22.90;37.10;;;;;;4781080;29;20051;-54
2021/10/18 00:08:18;;;;;;;8.88;6.93;;;22.90;37.10;;;;;;4775168;29;20286;-53
2021/10/18 00:10:47;;;;;;;10.82;7.78;;;22.90;37.10;;;;;;4778664;29;20148;-54
2021/10/18 00:13:35;;;;;;;8.98;7.57;;;22.90;37.10;;;;;;4781382;29;20055;-51
2021/10/18 00:16:02;;;;;;;9.57;7.57;;;22.90;37.10;;;;;;4781289;29;20483;-53
2021/10/18 00:18:29;;;;;;;10.35;7.47;;;22.90;37.20;;;;;;4775146;29;20598;-53
2021/10/18 00:20:57;;;;;;;9.13;7.05;;;22.90;37.70;;;;;;4779362;29;20079;-53
2021/10/18 00:23:24;;;;;;;10.48;7.82;;;22.90;37.20;;;;;;4780427;29;20382;-54
2021/10/18 00:25:53;;;;;;;10.40;7.72;;;22.90;37.20;;;;;;4781638;29;20573;-53
2021/10/18 00:28:20;;;;;;;11.02;8.50;;;22.80;37.10;;;;;;4775316;29;20051;-53
2021/10/18 00:30:48;;;;;;;8.68;6.97;;;22.80;37.10;;;;;;4778414;29;20146;-54
2021/10/18 00:33:16;;;;;;;9.35;7.22;;;22.80;37.20;;;;;;4780560;29;20138;-53
2021/10/18 00:35:43;;;;;;;9.85;7.50;;;22.80;37.20;;;;;;4780649;29;20452;-52
2021/10/18 00:38:10;;;;;;;9.40;7.68;;;22.80;37.20;;;;;;4774668;29;20137;-54
2021/10/18 00:40:38;;;;;;;11.02;7.47;;;22.80;37.20;;;;;;4777541;30;20066;-53
2021/10/18 00:43:05;;;;;;;8.05;6.90;;;22.80;37.20;;;;;;4780709;29;20142;-54
2021/10/18 00:45:33;;;;;;;10.30;7.90;;;22.80;37.20;;;;;;4780892;29;20601;-55
2021/10/18 00:48:02;;;;;;;9.05;6.97;;;22.80;37.20;;;;;;4777097;29;20047;-54
2021/10/18 00:50:29;;;;;;;8.77;6.95;;;22.80;37.20;;;;;;4776402;30;20146;-54
2021/10/18 00:52:57;;;;;;;8.57;7.45;;;22.80;37.20;;;;;;4779704;29;20101;-53
2021/10/18 00:55:24;;;;;;;8.95;7.10;;;22.80;37.20;;;;;;4780278;29;20059;-52
2021/10/18 00:57:52;;;;;;;10.63;7.93;;;22.80;37.20;;;;;;4776316;29;20459;-54
2021/10/18 01:00:20;;;;;;;9.18;7.07;;;22.80;37.20;;;;;;4774440;30;20108;-54
2021/10/18 01:02:47;;;;;;;9.80;7.90;;;22.80;37.30;;;;;;4780602;29;20150;-53
2021/10/18 01:05:14;;;;;;;10.25;7.60;;;22.80;37.30;;;;;;4780671;29;20059;-54
2021/10/18 01:07:43;;;;;;;10.45;7.85;;;22.80;37.20;;;;;;4775804;29;20567;-57
2021/10/18 01:10:10;;;;;;;9.50;7.40;;;22.80;37.20;;;;;;4760523;30;20055;-51
2021/10/18 01:12:38;;;;;;;10.07;7.40;;;22.80;37.20;;;;;;4780235;29;20063;-54
2021/10/18 01:15:05;;;;;;;10.10;7.25;;;22.80;37.10;;;;;;4780050;29;20401;-54
2021/10/18 01:17:32;;;;;;;7.13;6.07;;;22.80;37.10;;;;;;4774944;29;20086;-54
2021/10/18 01:19:59;;;;;;;9.10;6.97;;;22.80;37.10;;;;;;4775219;29;20055;-55
2021/10/18 01:22:28;;;;;;;9.93;7.50;;;22.80;37.10;;;;;;4780128;29;20541;-53
2021/10/18 01:24:55;;;;;;;8.60;6.85;;;22.80;37.10;;;;;;4778014;29;20150;-54
2021/10/18 01:27:22;;;;;;;9.95;7.15;;;22.80;37.10;;;;;;4777319;30;20052;-54
2021/10/18 01:29:49;;;;;;;9.18;6.18;;;22.80;37.10;;;;;;4773094;29;20067;-53
2021/10/18 01:32:16;;;;;;;9.50;7.55;;;22.80;37.20;;;;;;4779028;30;20177;-54
2021/10/18 01:34:44;;;;;;;7.75;6.75;;;22.80;37.10;;;;;;4779380;29;20137;-54
2021/10/18 01:37:11;;;;;;;9.88;7.07;;;22.80;37.20;;;;;;4780586;29;20130;-57
2021/10/18 01:39:38;;;;;;;9.15;7.47;;;22.80;37.20;;;;;;4771847;29;20144;-54
2021/10/18 01:42:05;;;;;;;8.52;6.50;;;22.80;37.20;;;;;;4779916;29;20138;-55
2021/10/18 01:44:33;;;;;;;8.63;6.70;;;22.70;37.20;;;;;;4778538;29;20052;-53
2021/10/18 01:47:00;;;;;;;8.50;6.88;;;22.80;37.20;;;;;;4779440;29;20051;-54
2021/10/18 01:49:27;;;;;;;9.95;7.72;;;22.80;37.20;;;;;;4771425;29;20069;-53
2021/10/18 01:51:54;;;;;;;7.85;6.55;;;22.80;37.20;;;;;;4781486;30;20589;-54
2021/10/18 01:54:21;;;;;;;9.82;7.05;;;22.80;37.30;;;;;;4781048;29;20069;-51
2021/10/18 01:56:49;;;;;;;8.90;6.68;;;22.70;37.20;;;;;;4782996;29;20090;-59
2021/10/18 01:59:16;;;;;;;9.15;6.93;;;22.70;37.20;;;;;;4774545;29;20058;-54
2021/10/18 02:01:43;;;;;;;7.13;6.20;;;22.70;37.30;;;;;;4782632;29;20142;-54
2021/10/18 02:04:10;;;;;;;7.78;6.43;;;22.70;37.30;;;;;;4783121;29;20115;-51
2021/10/18 02:06:37;;;;;;;8.05;6.18;;;22.70;37.90;;;;;;4783047;29;20521;-53
2021/10/18 02:09:04;;;;;;;8.25;6.43;;;22.70;37.30;;;;;;4773211;29;20730;-54
2021/10/18 02:11:32;;;;;;;9.90;7.45;;;22.70;37.30;;;;;;4782821;29;20054;-53
2021/10/18 02:13:59;;;;;;;8.20;6.45;;;22.70;37.30;;;;;;4782438;29;20146;-54
2021/10/18 02:16:26;;;;;;;7.80;6.68;;;22.70;37.30;;;;;;4783127;29;20567;-54
2021/10/18 02:18:53;;;;;;;7.75;6.07;;;22.70;37.30;;;;;;4774216;29;20414;-54
2021/10/18 02:21:20;;;;;;;9.27;7.30;;;22.70;37.30;;;;;;4781488;30;20055;-54
2021/10/18 02:23:47;;;;;;;9.10;6.60;;;22.70;37.30;;;;;;4782539;29;20062;-54
2021/10/18 02:26:14;;;;;;;8.00;6.30;;;22.60;37.30;;;;;;4783506;29;20066;-51
2021/10/18 02:28:42;;;;;;;8.70;6.70;;;22.60;37.20;;;;;;4775468;29;20142;-54
2021/10/18 02:31:09;;;;;;;9.48;6.35;;;22.60;37.30;;;;;;4764301;30;20056;-54
2021/10/18 02:33:36;;;;;;;9.43;7.25;;;22.70;37.30;;;;;;4764974;30;20276;-55
2021/10/18 02:36:03;;;;;;;7.32;5.90;;;22.70;37.30;;;;;;4764338;30;20060;-55
2021/10/18 02:38:30;;;;;;;8.95;6.65;;;22.70;37.40;;;;;;4767320;29;20474;-54
2021/10/18 02:40:58;;;;;;;7.97;6.13;;;22.70;37.30;;;;;;4779559;29;20222;-55
2021/10/18 02:43:25;;;;;;;8.98;6.47;;;22.70;37.30;;;;;;4782053;29;20562;-55
2021/10/18 02:45:52;;;;;;;8.30;6.05;;;22.70;37.30;;;;;;4781937;29;20246;-53
2021/10/18 02:48:19;;;;;;;7.57;6.38;;;22.70;37.30;;;;;;4776158;29;20539;-54
2021/10/18 02:50:46;;;;;;;9.50;6.60;;;22.70;37.30;;;;;;4780794;29;20516;-54
2021/10/18 02:53:20;;;;;;;8.60;6.45;;;22.70;37.30;;;;;;4782376;29;20510;-53
2021/10/18 02:55:47;;;;;;;6.57;5.65;;;22.70;37.30;;;;;;4781705;29;20413;-55
2021/10/18 02:58:14;;;;;;;8.30;6.38;;;22.70;37.20;;;;;;4776326;29;20142;-54
2021/10/18 03:00:42;;;;;;;6.80;5.38;;;22.60;37.20;;;;;;4779526;29;20060;-53
2021/10/18 03:03:09;;;;;;;7.63;5.93;;;22.70;37.30;;;;;;4781297;29;20055;-53
2021/10/18 03:05:36;;;;;;;7.07;5.53;;;22.60;37.20;;;;;;4780783;29;20655;-53
2021/10/18 03:08:04;;;;;;;6.80;5.85;;;22.70;37.30;;;;;;4776596;29;20055;-54
2021/10/18 03:10:31;;;;;;;7.85;5.65;;;22.70;37.30;;;;;;4778161;30;20146;-55
2021/10/18 03:12:58;;;;;;;7.38;5.82;;;22.60;37.20;;;;;;4780820;29;20078;-54
2021/10/18 03:15:25;;;;;;;6.80;5.70;;;22.60;37.20;;;;;;4780355;29;20075;-52
2021/10/18 03:17:52;;;;;;;7.85;6.15;;;22.60;37.20;;;;;;4778286;29;20138;-52
2021/10/18 03:20:19;;;;;;;6.05;5.38;;;22.60;37.20;;;;;;4777970;29;20083;-55
2021/10/18 03:22:46;;;;;;;7.65;5.90;;;22.60;37.50;;;;;;4781863;29;20398;-53
2021/10/18 03:25:13;;;;;;;6.05;5.45;;;22.60;37.20;;;;;;4781547;29;20085;-53
2021/10/18 03:27:40;;;;;;;6.53;5.22;;;22.70;37.30;;;;;;4778893;29;20142;-52
2021/10/18 03:30:08;;;;;;;6.78;5.78;;;22.60;37.30;;;;;;4776680;29;20345;-54
2021/10/18 03:32:35;;;;;;;7.57;6.32;;;22.60;37.30;;;;;;4778679;30;20161;-54
2021/10/18 03:35:03;;;;;;;6.78;5.80;;;22.60;37.30;;;;;;4781478;29;20079;-54
2021/10/18 03:37:30;;;;;;;7.13;5.70;;;22.60;37.30;;;;;;4776522;29;20258;-57
2021/10/18 03:39:58;;;;;;;7.45;5.65;;;22.50;37.30;;;;;;4776251;29;20533;-50
2021/10/18 03:42:26;;;;;;;7.28;5.20;;;22.60;37.30;;;;;;4777819;30;20138;-53
2021/10/18 03:44:53;;;;;;;6.82;5.13;;;22.60;37.30;;;;;;4775051;29;20062;-50
2021/10/18 03:47:20;;;;;;;6.72;5.20;;;22.60;37.30;;;;;;4776039;29;20194;-54
2021/10/18 03:49:47;;;;;;;7.00;5.45;;;22.50;37.30;;;;;;4765109;29;20063;-54
2021/10/18 03:52:17;;;;;;;6.15;5.22;;;22.50;37.30;;;;;;4776760;30;20134;-55
2021/10/18 03:54:44;;;;;;;5.35;4.85;;;22.60;37.40;;;;;;4767969;30;20323;-54
2021/10/18 03:57:11;;;;;;;6.40;5.47;;;22.50;37.30;;;;;;4775925;30;20055;-55
2021/10/18 03:59:38;;;;;;;9.85;5.65;;;22.50;37.30;;;;;;4766918;29;20094;-54
2021/10/18 04:02:06;;;;;;;6.50;5.43;;;22.50;37.40;;;;;;4771174;30;20056;-54
2021/10/18 04:04:34;;;;;;;7.05;5.00;;;22.50;37.30;;;;;;4779081;29;20055;-53
2021/10/18 04:07:01;;;;;;;5.97;5.05;;;22.50;37.30;;;;;;4779061;29;20079;-51
2021/10/18 04:09:28;;;;;;;5.55;4.95;;;22.50;37.30;;;;;;4770912;29;20324;-54
2021/10/18 04:11:55;;;;;;;5.03;4.35;;;22.50;37.30;;;;;;4780266;29;20070;-55
2021/10/18 04:14:22;;;;;;;7.53;5.45;;;22.50;37.30;;;;;;4780526;29;20059;-53
2021/10/18 04:16:49;;;;;;;5.57;4.85;;;22.50;37.30;;;;;;4779734;30;20084;-53
2021/10/18 04:19:17;;;;;;;6.70;5.68;;;22.50;37.40;;;;;;4773030;29;20150;-53
2021/10/18 04:21:44;;;;;;;7.13;5.82;;;22.50;37.30;;;;;;4781329;29;20075;-55
2021/10/18 04:24:11;;;;;;;6.10;5.35;;;22.50;37.30;;;;;;4779604;29;20061;-53
2021/10/18 04:26:38;;;;;;;7.00;5.30;;;22.50;37.30;;;;;;4778067;29;20055;-53
2021/10/18 04:29:06;;;;;;;5.32;4.25;;;22.50;37.20;;;;;;4771050;29;20051;-55
2021/10/18 04:31:34;;;;;;;7.53;5.15;;;22.50;37.20;;;;;;4780651;29;20134;-53
2021/10/18 04:34:02;;;;;;;6.78;5.20;;;22.50;37.20;;;;;;4779551;30;20138;-54
2021/10/18 04:36:29;;;;;;;4.82;4.32;;;22.60;37.20;;;;;;4780255;29;20083;-52
2021/10/18 04:38:57;;;;;;;6.47;4.78;;;22.60;37.30;;;;;;4772441;29;20441;-54
2021/10/18 04:41:24;;;;;;;5.60;4.85;;;22.50;37.20;;;;;;4776140;30;20071;-54
2021/10/18 04:43:51;;;;;;;5.32;4.75;;;22.60;37.20;;;;;;4766086;29;20460;-54
2021/10/18 04:46:18;;;;;;;5.03;4.53;;;22.60;37.20;;;;;;4771548;30;20520;-54
2021/10/18 04:48:45;;;;;;;4.93;4.43;;;22.50;37.20;;;;;;4761614;30;20509;-53
2021/10/18 04:51:12;;;;;;;6.22;5.18;;;22.50;37.20;;;;;;4771346;29;20057;-54
2021/10/18 04:53:39;;;;;;;4.55;4.00;;;22.50;37.20;;;;;;4773621;30;20123;-53
2021/10/18 04:56:06;;;;;;;5.85;4.57;;;22.50;37.20;;;;;;4771984;30;20146;-53
2021/10/18 04:58:34;;;;;;;5.13;4.60;;;22.50;37.20;;;;;;4768716;29;20359;-54
2021/10/18 05:01:01;;;;;;;5.57;4.35;;;22.50;37.10;;;;;;4768583;30;20058;-54
2021/10/18 05:03:28;;;;;;;6.03;4.75;;;22.50;37.20;;;;;;4771971;30;20082;-53
2021/10/18 05:05:56;;;;;;;5.53;4.30;;;22.50;37.10;;;;;;4769825;29;20065;-53
2021/10/18 05:08:30;;;;;;;4.43;4.03;;;22.50;36.90;;;;;;4766884;29;20070;-55
2021/10/18 05:10:57;;;;;;;4.63;4.13;;;22.50;36.60;;;;;;4770598;29;20065;-54
2021/10/18 05:13:24;;;;;;;5.50;4.25;;;22.50;36.50;;;;;;4771507;29;20055;-54
2021/10/18 05:15:55;;;;;;;5.85;4.45;;;22.60;36.50;;;;;;4774146;29;20083;-54
2021/10/18 05:18:22;;;;;;;;;;;22.50;36.60;;;;;;4767820;29;20058;-53
2021/10/18 05:20:50;;;;;;;6.43;4.53;;;22.60;36.50;;;;;;4765728;30;20044;-54
2021/10/18 05:23:17;;;;;;;4.93;4.00;;;22.60;36.60;;;;;;4773651;29;20120;-54
2021/10/18 05:25:45;;;;;;;4.97;4.47;;;22.50;36.80;;;;;;4777029;29;20051;-53
2021/10/18 05:28:12;;;;;;;4.63;4.20;;;22.50;37.00;;;;;;4769028;29;20062;-53
2021/10/18 05:30:40;;;;;;;5.28;3.92;;;22.50;37.10;;;;;;4769670;29;20586;-54
2021/10/18 05:33:07;;;;;;;5.20;4.20;;;22.50;37.20;;;;;;4775333;29;20079;-55
2021/10/18 05:35:36;;;;;;;6.63;3.85;;;22.50;37.20;;;;;;4774288;30;20311;-53
2021/10/18 05:38:05;;;;;;;7.80;4.47;;;22.40;37.20;;;;;;4768157;29;20055;-50
2021/10/18 05:40:32;;;;;;;5.38;4.40;;;22.50;37.20;;;;;;4770840;29;20102;-54
2021/10/18 05:42:59;;;;;;;4.68;4.22;;;22.50;37.20;;;;;;4772959;30;20181;-52
2021/10/18 05:45:26;;;;;;;6.90;3.92;;;22.50;37.30;;;;;;4775526;30;20047;-56
2021/10/18 05:47:59;;;;;;;5.65;4.43;;;22.50;37.30;;;;;;4769750;29;20095;-57
2021/10/18 05:50:35;;;;;;;6.50;5.15;;;22.50;37.40;;;;;;4744026;30;20071;-54
2021/10/18 05:53:02;;;;;;;4.68;4.00;;;22.50;37.50;;;;;;4775508;29;20131;-52
2021/10/18 05:55:30;;;;;;;4.20;3.80;;;22.60;37.70;;;;;;4770099;30;20182;-55
2021/10/18 05:58:00;;;;;;;4.30;3.90;;;22.60;37.60;;;;;;4765801;29;20059;-53
2021/10/18 06:00:28;;;;;;;5.20;4.22;;;22.70;37.50;;;;;;4768251;29;20142;-55
2021/10/18 06:02:55;;;;;;;4.90;3.53;;;22.70;37.40;;;;;;4773872;29;20068;-54
2021/10/18 06:05:24;;;;;;;4.25;3.55;;;22.70;37.10;;;;;;4772446;29;20088;-55
2021/10/18 06:07:51;;;;;;;4.65;3.67;;;22.80;37.10;;;;;;4770220;29;20259;-55
2021/10/18 06:10:19;;;;;;;4.38;3.72;;;22.80;37.00;;;;;;4769811;29;20146;-54
2021/10/18 06:12:46;;;;;;;4.57;3.85;;;22.80;37.10;;;;;;4776644;29;20474;-52
2021/10/18 06:15:14;;;;;;;7.10;4.28;;;22.90;37.20;;;;;;4776135;30;20418;-53
2021/10/18 06:17:43;;;;;;;5.53;4.60;;;22.90;37.20;;;;;;4772451;29;20134;-53
2021/10/18 06:20:10;;;;;;;6.93;4.70;;;22.90;37.20;;;;;;4782825;29;20062;-53
2021/10/18 06:22:38;;;;;;;6.20;4.70;;;23.00;37.30;;;;;;4773971;29;20069;-49
2021/10/18 06:25:06;;;;;;;4.72;4.25;;;23.00;37.20;;;;;;4774102;30;20449;-55
2021/10/18 06:27:34;;;;;;;5.75;5.18;;;23.10;37.30;;;;;;4774726;29;20051;-53
2021/10/18 06:30:02;;;;;;;4.93;4.35;;;23.10;37.20;;;;;;4763295;29;20102;-54
2021/10/18 06:32:29;;;;;;;6.75;4.65;;;23.10;37.30;;;;;;4768448;29;21507;-54
2021/10/18 06:34:56;;;;;;;4.97;4.10;;;23.10;37.30;;;;;;4774512;29;20062;-54
2021/10/18 06:37:24;;;;;;;5.45;4.85;;;23.20;37.40;;;;;;4772493;29;20069;-56
2021/10/18 06:39:51;;;;;;;6.60;5.03;;;23.20;37.30;;;;;;4759556;29;20063;-57
2021/10/18 06:42:18;;;;;;;7.88;4.85;;;23.30;37.40;;;;;;4773163;29;20074;-56
2021/10/18 06:44:45;;;;;;;5.28;4.75;;;23.30;37.20;;;;;;4773018;30;20114;-55
2021/10/18 06:47:12;;;;;;;4.97;4.38;;;23.30;37.10;;;;;;4770145;29;20089;-56
2021/10/18 06:49:39;;;;;;;5.43;4.72;;;23.40;37.10;;;;;;4761414;29;20588;-55
2021/10/18 06:52:07;;;;;;;7.13;4.55;;;23.40;37.00;;;;;;4773980;30;20086;-54
2021/10/18 06:54:40;;;;;;;6.47;5.10;;;23.50;36.90;;;;;;4774577;29;20574;-56
2021/10/18 06:57:08;;;;;;;7.68;5.70;;;23.50;36.80;;;;;;4773423;29;20130;-58
2021/10/18 06:59:35;;;;;;;6.75;5.25;;;23.50;36.70;;;;;;4776843;29;20433;-56
2021/10/18 07:02:02;;;;;;;7.40;5.20;;;23.60;36.60;;;;;;4773867;30;20514;-54
2021/10/18 07:04:29;;;;;;;5.65;4.80;;;23.60;36.60;;;;;;4777708;30;20056;-56
2021/10/18 07:06:57;;;;;;;6.82;5.65;;;23.60;36.60;;;;;;4775063;29;20066;-56
2021/10/18 07:09:25;;;;;;;6.35;4.75;;;23.70;36.70;;;;;;4762063;29;20070;-59
2021/10/18 07:11:52;;;;;;;4.90;4.38;;;23.70;36.60;;;;;;4772290;29;20116;-58
2021/10/18 07:14:19;;;;;;;5.50;4.43;;;23.80;36.70;;;;;;4774425;29;20105;-56
2021/10/18 07:16:46;;;;;;;9.73;4.72;;;23.80;36.90;;;;;;4774875;29;20149;-55
2021/10/18 07:19:13;;;;;;;6.60;3.90;;;23.80;37.10;;;;;;4766773;29;20062;-57
2021/10/18 07:21:42;;;;;;;7.10;4.82;;;23.90;37.30;;;;;;4770765;29;20516;-58
2021/10/18 07:24:10;;;;;;;5.18;4.47;;;23.90;37.50;;;;;;4771774;29;20047;-55
2021/10/18 07:26:37;;;;;;;7.93;5.20;;;24.00;37.60;;;;;;4771178;29;20051;-54
2021/10/18 07:29:09;;;;;;;14.60;4.47;;;24.00;37.80;;;;;;4760766;29;20061;-49
2021/10/18 07:31:36;;;;;;;4.90;4.40;;;24.10;37.60;;;;;;4769238;29;20090;-52
2021/10/18 07:34:11;;;;;;;4.93;4.25;;;24.10;37.40;;;;;;4769402;29;20202;-54
2021/10/18 07:36:47;;;;;;;5.28;4.50;;;24.10;37.20;;;;;;4770753;29;20394;-52
2021/10/18 07:39:23;;;;;;;5.13;4.53;;;24.20;37.10;;;;;;4764074;29;20154;-50
2021/10/18 07:41:53;;;;;;;5.18;4.57;;;24.30;37.70;;;;;;4776042;29;20059;-52
2021/10/18 07:44:20;;;;;;;4.55;4.05;;;24.30;37.00;;;;;;4778146;29;20063;-55
2021/10/18 07:46:48;;;;;;;5.65;4.50;;;24.30;36.90;;;;;;4776204;29;20546;-54
2021/10/18 07:49:16;;;;;;;6.13;4.35;;;24.30;36.80;;;;;;4748568;29;20075;-55
2021/10/18 07:51:44;;;;;;;6.75;4.53;;;24.30;36.70;;;;;;4772925;29;20116;-51
2021/10/18 07:54:12;;;;;;;5.57;4.40;;;24.40;36.80;;;;;;4776132;29;20043;-51
2021/10/18 07:56:39;;;;;;;10.02;4.63;;;24.40;36.80;;;;;;4775456;30;20166;-52
2021/10/18 07:59:06;;;;;;;8.25;4.75;;;24.40;36.70;;;;;;4769065;29;20047;-51
2021/10/18 08:01:33;;;;;;;5.20;4.70;;;24.40;36.60;;;;;;4774302;29;20086;-52
2021/10/18 08:04:01;;;;;;;5.68;4.50;;;24.50;36.60;;;;;;4775850;29;20059;-54
2021/10/18 08:06:28;;;;;;;8.63;5.05;;;24.50;36.50;;;;;;4774192;29;20051;-52
2021/10/18 08:08:56;;;;;;;5.32;4.60;;;24.50;36.50;;;;;;4763550;29;20075;-50
2021/10/18 08:11:23;;;;;;;5.78;4.82;;;24.50;36.50;;;;;;4771130;30;20108;-52
2021/10/18 08:13:50;;;;;;;5.30;4.38;;;24.50;36.50;;;;;;4772353;30;20059;-51
2021/10/18 08:16:19;;;;;;;5.70;4.30;;;24.60;36.70;;;;;;4777863;29;20464;-54
2021/10/18 08:18:46;;;;;;;5.07;4.57;;;24.60;36.60;;;;;;4764744;29;20056;-54
2021/10/18 08:21:13;;;;;;;5.05;4.55;;;24.60;36.60;;;;;;4766846;30;20149;-50
2021/10/18 08:23:41;;;;;;;5.20;4.68;;;24.70;36.60;;;;;;4773699;30;20090;-55
2021/10/18 08:26:09;;;;;;;5.70;4.43;;;24.70;36.50;;;;;;4785664;29;20185;-56
2021/10/18 08:28:36;;;;;;;6.13;4.35;;;24.70;36.40;;;;;;4760760;29;20073;-54
2021/10/18 08:31:12;;;;;;;6.38;4.78;;;24.70;36.30;;;;;;4768993;29;20395;-56
2021/10/18 08:33:40;;;;;;;9.27;4.75;;;24.80;36.40;;;;;;4768744;30;20065;-55
2021/10/18 08:36:07;;;;;;;7.22;5.25;;;24.80;36.30;;;;;;4773881;29;20043;-51
2021/10/18 08:38:47;;;;;;;6.63;5.00;;;24.80;36.10;;;;;;4762957;29;20055;-56
2021/10/18 08:41:18;;;;;;;;;;;24.80;36.10;;;;;;4768217;29;20505;-57
2021/10/18 08:46:32;;;;;;;6.72;4.35;;;24.80;36.30;;;;;;4772685;30;20142;-51
2021/10/18 08:49:00;;;;;;;5.57;4.53;;;24.80;36.30;;;;;;4759764;29;21398;-53
2021/10/18 08:51:28;;;;;;;5.55;4.55;;;24.90;36.30;;;;;;4769818;29;20501;-57
2021/10/18 08:53:55;;;;;;;4.90;4.25;;;24.90;36.20;;;;;;4774167;29;20047;-52
2021/10/18 08:56:31;;;;;;;5.47;4.68;;;24.90;36.20;;;;;;4773265;29;20055;-56
2021/10/18 08:58:58;;;;;;;6.25;4.88;;;25.00;36.20;;;;;;4759694;29;20059;-58
2021/10/18 09:01:50;;;;;;;5.72;4.57;;;25.00;36.30;;;;;;4768353;29;20561;-58
2021/10/18 09:04:27;;;;;;;7.10;4.18;;;25.10;36.50;;;;;;4773047;29;20051;-52
2021/10/18 09:07:00;;;;;;;4.90;4.40;;;25.10;36.50;;;;;;4768127;29;20116;-58
2021/10/18 09:09:43;;;;;;;6.60;4.15;;;25.20;36.50;;;;;;4762718;29;20112;-57
2021/10/18 09:12:23;;;;;;;5.40;4.43;;;25.30;36.40;;;;;;4769515;30;20062;-56
2021/10/18 09:14:50;;;;;;;5.07;4.47;;;25.30;36.50;;;;;;4770274;29;20736;-56
2021/10/18 09:17:35;;;;;;;5.72;4.38;;;25.30;36.50;;;;;;4768381;29;20469;-54
2021/10/18 09:20:23;;;;;;;4.78;4.28;;;25.40;36.50;;;;;;4761800;30;20112;-56
2021/10/18 09:22:52;;;;;;;8.18;4.07;;;25.40;36.40;;;;;;4769842;30;20581;-56
2021/10/18 09:25:41;;;;;;;4.90;4.40;;;25.40;36.50;;;;;;4769643;29;20054;-53
2021/10/18 09:28:13;;;;;;;4.40;3.85;;;25.50;36.50;;;;;;4764083;29;20456;-52
2021/10/18 09:30:48;;;;;;;4.28;3.85;;;25.50;36.60;;;;;;4766892;29;20116;-53
2021/10/18 09:33:31;;;;;;;4.75;4.07;;;25.50;36.70;;;;;;4773459;29;20765;-51
2021/10/18 09:36:01;;;;;;;4.32;3.92;;;25.60;36.70;;;;;;4771069;30;20557;-54
2021/10/18 09:38:28;;;;;;;;;;;25.60;36.60;;;;;;4765976;29;20082;-56
2021/10/18 09:40:59;;;;;;;4.05;3.65;;;25.60;36.70;;;;;;4765174;29;20682;-51
2021/10/18 09:43:40;;;;;;;4.63;3.83;;;25.70;36.60;;;;;;4771869;29;20043;-51
2021/10/18 09:46:16;;;;;;;5.85;3.97;;;25.70;36.60;;;;;;4769955;30;20112;-50
2021/10/18 10:51:43;;;;;;;5.03;3.00;;;26.50;35.60;;;;;;4769477;29;20388;-53
2021/10/18 10:54:06;;;;;;;3.67;3.10;;;26.50;35.60;;;;;;4774570;29;20051;-52
2021/10/18 10:56:45;;;;;;;4.10;3.42;;;26.50;35.40;;;;;;4774330;29;20376;-56
2021/10/18 10:59:30;;;;;;;5.13;2.92;;;26.60;35.50;;;;;;4763717;29;20066;-58
2021/10/18 11:02:11;;;;;;;5.22;3.88;;;26.60;35.70;;;;;;4775091;29;20142;-53
2021/10/18 11:04:41;;;;;;;3.95;3.03;;;26.60;35.60;;;;;;4775612;29;20115;-53
2021/10/18 11:07:12;;;;;;;3.50;3.05;;;26.70;35.60;;;;;;4775399;30;20059;-54
2021/10/18 11:09:46;;;;;;;3.45;2.83;;;26.70;35.70;;;;;;4761726;29;20143;-58
2021/10/18 11:12:27;;;;;;;3.30;3.00;;;26.60;35.60;;;;;;4774325;29;20078;-57
2021/10/18 11:15:10;;;;;;;3.22;2.90;;;26.60;35.70;;;;;;4775402;29;20043;-57
2021/10/18 11:17:47;;;;;;;4.18;3.22;;;26.70;35.80;;;;;;4774288;29;20083;-55
2021/10/18 11:20:17;;;;;;;3.72;3.38;;;26.60;35.60;;;;;;4767678;30;20054;-54
2021/10/18 11:22:48;;;;;;;4.07;3.50;;;26.70;35.20;;;;;;4775645;29;20525;-56
2021/10/18 11:25:18;;;;;;;3.53;3.20;;;26.60;34.90;;;;;;4775596;29;20051;-57
2021/10/18 11:27:51;;;;;;;3.40;3.03;;;26.70;35.00;;;;;;4774605;29;20532;-52
2021/10/18 11:30:20;;;;;;;3.42;2.92;;;26.60;34.80;;;;;;4769763;30;20131;-56
2021/10/18 11:32:58;;;;;;;6.35;3.17;;;26.60;35.00;;;;;;4775626;30;20051;-53
2021/10/18 11:35:25;;;;;;;4.80;3.13;;;26.60;35.10;;;;;;4777835;29;20100;-54
2021/10/18 11:38:03;;;;;;;3.47;3.00;;;26.60;34.80;;;;;;4762987;29;20064;-56
2021/10/18 11:40:39;;;;;;;5.57;3.33;;;26.60;34.80;;;;;;4768304;29;20426;-57
2021/10/18 11:43:12;;;;;;;5.30;3.67;;;26.60;34.70;;;;;;4772239;29;20055;-56
2021/10/18 11:45:41;;;;;;;4.95;3.13;;;26.50;34.80;;;;;;4775634;29;20063;-56
2021/10/18 11:48:17;;;;;;;8.43;3.65;;;26.50;35.00;;;;;;4770021;29;20472;-53
2021/10/18 11:50:54;;;;;;;9.70;3.50;;;26.50;35.10;;;;;;4764493;29;20482;-57
2021/10/18 11:53:23;;;;;;;3.90;3.30;;;26.50;35.30;;;;;;4774644;30;20059;-54
2021/10/18 11:55:53;;;;;;;5.18;3.47;;;26.50;35.40;;;;;;4774825;29;20128;-54
2021/10/18 11:58:26;;;;;;;3.90;3.42;;;26.50;35.40;;;;;;4770735;29;20051;-57
2021/10/18 12:01:02;;;;;;;4.13;3.33;;;26.60;35.50;;;;;;4768754;30;20058;-52
2021/10/18 12:03:31;;;;;;;5.32;3.78;;;26.60;35.40;;;;;;4774129;29;20048;-55
2021/10/18 12:06:01;;;;;;;3.05;2.63;;;26.60;35.30;;;;;;4772982;30;20087;-56
2021/10/18 12:08:29;;;;;;;;;;;26.50;35.30;;;;;;4769183;29;20507;-55
2021/10/18 12:10:58;;;;;;;7.97;4.25;;;26.60;35.30;;;;;;4768669;29;19968;-52
2021/10/18 12:13:30;;;;;;;7.07;3.58;;;26.60;35.30;;;;;;4776417;30;20051;-54
2021/10/18 12:16:07;;;;;;;4.78;3.33;;;26.60;35.30;;;;;;4776472;30;20057;-50
2021/10/18 12:18:46;;;;;;;4.40;2.75;;;26.60;35.30;;;;;;4766886;29;20051;-54
2021/10/18 12:21:31;;;;;;;7.35;3.58;;;26.60;35.40;;;;;;4770193;29;20044;-58
2021/10/18 12:24:02;;;;;;;5.97;3.25;;;26.60;35.50;;;;;;4772077;30;20071;-56
2021/10/18 12:26:31;;;;;;;7.15;3.33;;;26.60;35.80;;;;;;4772064;29;20083;-52
2021/10/18 12:29:14;;;;;;;4.45;2.83;;;26.60;35.80;;;;;;4763218;29;20146;-56
2021/10/18 12:31:47;;;;;;;7.95;3.60;;;26.60;35.60;;;;;;4767716;29;20055;-54
2021/10/18 12:34:26;;;;;;;3.92;2.78;;;26.60;35.30;;;;;;4773651;29;20101;-56
2021/10/18 12:37:00;;;;;;;6.22;3.38;;;26.70;35.30;;;;;;4773745;29;20094;-56
2021/10/18 12:40:02;;;;;;;5.50;3.03;;;26.70;35.20;;;;;;4761757;29;20055;-55
2021/10/18 12:42:48;;;;;;;6.45;3.15;;;26.70;35.40;;;;;;4774482;29;20163;-54
2021/10/18 12:45:17;;;;;;;8.07;3.03;;;26.70;35.50;;;;;;4775634;30;20048;-57
2021/10/18 12:47:54;;;;;;;4.50;2.95;;;26.70;35.40;;;;;;4770457;29;20146;-56
2021/10/18 12:50:23;;;;;;;4.88;3.10;;;26.70;35.20;;;;;;4767224;29;20055;-57
2021/10/18 12:52:54;;;;;;;3.53;3.23;;;26.80;35.80;;;;;;4773391;29;20120;-57
2021/10/18 12:55:29;;;;;;;4.20;2.50;;;26.70;34.90;;;;;;4770985;29;20314;-55
2021/10/18 12:58:04;;;;;;;3.78;2.60;;;26.70;34.70;;;;;;4768260;29;20055;-55
2021/10/18 13:00:36;;;;;;;4.55;2.75;;;26.70;34.70;;;;;;4767274;29;20090;-54
2021/10/18 13:03:19;;;;;;;3.13;2.50;;;26.60;34.50;;;;;;4774670;30;20485;-51
2021/10/18 13:05:52;;;;;;;6.03;2.58;;;26.60;34.30;;;;;;4772485;30;20058;-51
2021/10/18 13:08:22;;;;;;;4.60;2.35;;;26.60;34.20;;;;;;4768284;29;20234;-54
2021/10/18 13:10:52;;;;;;;6.75;2.85;;;26.50;34.20;;;;;;4766586;29;20055;-54
2021/10/18 13:13:21;;;;;;;4.70;2.60;;;26.50;34.10;;;;;;4776339;29;20047;-54
2021/10/18 13:15:50;;;;;;;2.80;2.60;;;26.50;34.10;;;;;;4773746;30;20084;-52
2021/10/18 13:18:18;;;;;;;3.95;2.72;;;26.50;34.00;;;;;;4768407;29;20051;-54
2021/10/18 13:20:47;;;;;;;5.38;2.33;;;26.50;34.00;;;;;;4768929;30;20051;-54
2021/10/18 13:23:16;;;;;;;4.60;2.13;;;26.50;34.00;;;;;;4773897;29;20050;-56
2021/10/18 13:25:45;;;;;;;4.85;2.45;;;26.50;33.90;;;;;;4772448;29;20079;-54
2021/10/18 13:28:13;;;;;;;2.80;2.45;;;26.50;33.90;;;;;;4768482;29;20395;-55
2021/10/18 13:30:41;;;;;;;3.00;2.50;;;26.50;33.90;;;;;;4767464;29;20094;-53
2021/10/18 13:33:09;;;;;;;3.33;1.80;;;26.50;31.40;;;;;;4775355;29;20055;-55
2021/10/18 13:35:36;;;;;;;5.32;2.67;;;26.40;31.70;;;;;;4775082;30;20087;-54
2021/10/18 13:38:05;;;;;;;2.60;2.40;;;26.40;32.30;;;;;;4768175;29;20070;-53
2021/10/18 13:40:33;;;;;;;2.40;1.90;;;26.40;32.90;;;;;;4768700;29;20051;-55
2021/10/18 13:43:01;;;;;;;3.53;1.95;;;26.40;33.20;;;;;;4772963;29;20299;-51
2021/10/18 13:45:28;;;;;;;4.28;2.08;;;26.40;33.40;;;;;;4773378;29;20052;-50
2021/10/18 13:47:55;;;;;;;2.38;2.17;;;26.50;33.70;;;;;;4769978;29;20065;-56
2021/10/18 13:50:23;;;;;;;8.07;1.92;;;26.50;33.80;;;;;;4771837;29;20142;-56
2021/10/18 13:52:54;;;;;;;1.80;1.70;;;26.50;33.90;;;;;;4782378;29;20458;-54
2021/10/18 13:55:24;;;;;;;3.55;2.33;;;26.60;34.00;;;;;;4780304;30;20059;-56
2021/10/18 13:57:52;;;;;;;4.43;2.22;;;26.50;34.10;;;;;;4771028;29;20119;-56
2021/10/18 14:00:20;;;;;;;2.20;2.00;;;26.60;34.20;;;;;;4770956;29;20059;-52
2021/10/18 14:02:47;;;;;;;3.33;2.38;;;26.60;34.30;;;;;;4773802;30;20085;-51
2021/10/18 14:05:15;;;;;;;2.00;1.83;;;26.50;34.30;;;;;;4780270;29;20058;-55